Terminal Aerodrome Forecast
Issued by NWS

Home | Current Version | Previous Version | Text Only | Print | Product List | Glossary On
Versions: 1 2 3 4 5 6 7 8 9 10 11 12 13 14
000
FTUS45 KGJT 222339
TAFRIL
TAF
KRIL 222339Z 2300/2324 25009KT P6SM SCT200
      TEMPO 2300/2302 30010G20KT
     FM230300 28007KT P6SM FEW150
     FM230700 00000KT P6SM FEW150
     FM232300 24006KT P6SM SCT250=

USA.gov is the U.S. government's official web portal to all federal, state and local government web resources and services.